EDXW/GWT METAR and TAF weather

Enter ICAO airport designator
Station Type Date Time Source
EDXW METAR 2020/09/19 18:50 UTC NOAA

EDXW 191850Z AUTO 09007KT 9999 // OVC240/// 13/10 Q1022


Station Type Date Time Source
EDXW Decoded METAR 2020/09/19 18:50 UTC NOAA

Westerland / Sylt, Germany (EDXW) 54-55N 008-21E 20M
Sep 19, 2020 - 02:50 PM EDT / 2020.09.19 1850 UTC
Wind: from the E (090 degrees) at 8 MPH (7 KT):0
Visibility: greater than 7 mile(s):0
Sky conditions: overcast
Temperature: 55 F (13 C)
Dew Point: 50 F (10 C)
Relative Humidity: 81%
Pressure (altimeter): 30.18 in. Hg (1022 hPa)
ob: EDXW 191850Z AUTO 09007KT 9999 // OVC240/// 13/10 Q1022
cycle: 19

Station Type Date Time Source
EDXW TAF 2009/07/07 14:00 UTC NOAA

TAF EDXW 071400Z 0715/0719 22015G25KT 9999 SCT020

Example: see airport list